createdAt,value
2019-05-19T00:00:22.294Z,0
2019-05-19T00:01:24.103Z,0
2019-05-19T00:02:25.781Z,0
2019-05-19T00:03:27.810Z,0
2019-05-19T00:04:29.576Z,0
2019-05-19T00:05:31.471Z,0
2019-05-19T00:06:33.305Z,0
2019-05-19T00:07:35.343Z,0
2019-05-19T00:08:37.276Z,0
2019-05-19T00:09:39.108Z,0
2019-05-19T00:10:41.114Z,0
2019-05-19T00:11:42.998Z,0
2019-05-19T00:12:44.612Z,0
2019-05-19T00:13:46.429Z,0
2019-05-19T00:14:48.339Z,0
2019-05-19T00:15:50.229Z,0
2019-05-19T00:16:51.951Z,0
2019-05-19T00:17:53.665Z,0
2019-05-19T00:18:55.533Z,0
2019-05-19T00:19:57.269Z,0
2019-05-19T00:20:59.234Z,0
2019-05-19T00:22:00.999Z,0
2019-05-19T00:23:03.076Z,0
2019-05-19T00:24:05.045Z,0
2019-05-19T00:25:06.941Z,0
2019-05-19T00:26:08.926Z,0
2019-05-19T00:27:10.759Z,0
2019-05-19T00:28:12.231Z,0
2019-05-19T00:29:13.879Z,0
2019-05-19T00:30:15.543Z,0
2019-05-19T00:31:17.077Z,0
2019-05-19T00:32:18.599Z,0
2019-05-19T00:33:20.121Z,0
2019-05-19T00:34:21.654Z,0
2019-05-19T00:35:23.128Z,0
2019-05-19T00:37:04.114Z,0
2019-05-19T00:38:05.459Z,0
2019-05-19T00:39:38.003Z,0
2019-05-19T00:40:39.352Z,0
2019-05-19T00:42:11.926Z,0
2019-05-19T00:43:13.276Z,0
2019-05-19T00:44:45.820Z,0
2019-05-19T00:45:47.168Z,0
2019-05-19T00:47:08.680Z,0
2019-05-19T00:48:10.027Z,0
2019-05-19T00:49:42.590Z,0
2019-05-19T00:50:43.936Z,0
2019-05-19T00:51:45.297Z,0
2019-05-19T00:52:46.658Z,0
2019-05-19T00:53:48.026Z,0
2019-05-19T00:54:49.404Z,0
2019-05-19T00:55:50.731Z,0
2019-05-19T00:56:52.099Z,0
2019-05-19T00:57:53.484Z,0
2019-05-19T00:58:54.834Z,0
2019-05-19T00:59:56.204Z,0
2019-05-19T01:00:57.551Z,0
2019-05-19T01:01:58.900Z,0
2019-05-19T01:03:00.271Z,0
2019-05-19T01:04:01.621Z,0
2019-05-19T01:05:02.987Z,0
2019-05-19T01:06:04.342Z,0
2019-05-19T01:07:05.691Z,0
2019-05-19T01:08:07.039Z,0
2019-05-19T01:09:08.407Z,0
2019-05-19T01:10:09.769Z,0
2019-05-19T01:11:11.075Z,0
2019-05-19T01:12:12.426Z,0
2019-05-19T01:13:13.774Z,0
2019-05-19T01:14:15.409Z,0
2019-05-19T01:15:16.440Z,0
2019-05-19T01:16:17.812Z,0
2019-05-19T01:17:19.173Z,0
2019-05-19T01:18:20.525Z,0
2019-05-19T01:19:21.880Z,0
2019-05-19T01:20:23.237Z,0
2019-05-19T01:21:24.581Z,0
2019-05-19T01:22:25.956Z,0
2019-05-19T01:23:27.305Z,0
2019-05-19T01:24:28.657Z,0
2019-05-19T01:25:30.011Z,0
2019-05-19T01:26:31.355Z,0
2019-05-19T01:27:32.709Z,0
2019-05-19T01:28:34.058Z,0
2019-05-19T01:29:35.411Z,0
2019-05-19T01:30:36.757Z,0
2019-05-19T01:31:38.112Z,0
2019-05-19T01:32:39.467Z,0
2019-05-19T01:33:40.819Z,0
2019-05-19T01:34:42.163Z,0
2019-05-19T01:35:43.508Z,0
2019-05-19T01:36:44.861Z,0
2019-05-19T01:37:46.217Z,0
2019-05-19T01:38:47.572Z,0
2019-05-19T01:39:48.962Z,0
2019-05-19T01:40:50.315Z,0
2019-05-19T01:41:51.666Z,0
2019-05-19T01:42:53.018Z,0
2019-05-19T01:43:54.370Z,0
2019-05-19T01:44:55.731Z,0
2019-05-19T01:45:57.082Z,0
2019-05-19T01:46:58.449Z,0
2019-05-19T01:47:59.795Z,0
2019-05-19T01:49:01.165Z,0
2019-05-19T01:50:16.908Z,0
2019-05-19T01:51:03.880Z,0
2019-05-19T01:52:05.236Z,0
2019-05-19T01:53:06.588Z,0
2019-05-19T01:54:07.936Z,0
2019-05-19T01:55:09.284Z,0
2019-05-19T01:56:10.638Z,0
2019-05-19T01:57:11.988Z,0
2019-05-19T01:58:13.342Z,0
2019-05-19T01:59:14.697Z,0
2019-05-19T02:00:16.052Z,0
2019-05-19T02:01:17.393Z,0
2019-05-19T02:02:18.741Z,0
2019-05-19T02:03:20.115Z,0
2019-05-19T02:04:21.464Z,0
2019-05-19T02:05:22.812Z,0
2019-05-19T02:06:24.173Z,0
2019-05-19T02:07:25.583Z,0
2019-05-19T02:08:26.949Z,0
2019-05-19T02:09:28.296Z,0
2019-05-19T02:10:29.651Z,0
2019-05-19T02:11:31.080Z,0
2019-05-19T02:12:32.416Z,0
2019-05-19T02:13:33.808Z,0
2019-05-19T02:14:35.194Z,0
2019-05-19T02:15:36.605Z,0
2019-05-19T02:16:37.966Z,0
2019-05-19T02:17:39.379Z,0
2019-05-19T02:18:40.762Z,0
2019-05-19T02:19:42.124Z,0
2019-05-19T02:20:43.534Z,0
2019-05-19T02:21:44.892Z,0
2019-05-19T02:22:46.276Z,0
2019-05-19T02:23:47.641Z,0
2019-05-19T02:24:49.013Z,0
2019-05-19T02:25:50.363Z,0
2019-05-19T02:26:51.711Z,0
2019-05-19T02:27:53.064Z,0
2019-05-19T02:28:54.419Z,0
2019-05-19T02:29:55.773Z,0
2019-05-19T02:30:57.134Z,0
2019-05-19T02:31:58.491Z,0
2019-05-19T02:32:59.862Z,0
2019-05-19T02:34:01.250Z,0
2019-05-19T02:35:02.582Z,0
2019-05-19T02:36:03.927Z,0
2019-05-19T02:37:05.275Z,0
2019-05-19T02:38:06.654Z,0
2019-05-19T02:39:08.006Z,0
2019-05-19T02:40:09.359Z,0
2019-05-19T02:41:10.710Z,0
2019-05-19T02:42:12.062Z,0
2019-05-19T02:43:13.433Z,0
2019-05-19T02:44:14.792Z,0
2019-05-19T02:45:16.141Z,0
2019-05-19T02:46:17.447Z,0
2019-05-19T02:47:18.797Z,0
2019-05-19T02:48:20.139Z,0
2019-05-19T02:49:21.498Z,0
2019-05-19T02:50:22.856Z,0
2019-05-19T02:51:24.215Z,0
2019-05-19T02:52:25.562Z,0
2019-05-19T02:53:26.917Z,0
2019-05-19T02:54:28.265Z,0
2019-05-19T02:55:29.635Z,0
2019-05-19T02:56:30.975Z,0
2019-05-19T02:57:32.332Z,0
2019-05-19T02:58:33.696Z,0
2019-05-19T02:59:35.047Z,0
2019-05-19T03:00:36.384Z,0
2019-05-19T03:01:37.740Z,0
2019-05-19T03:02:39.098Z,0
2019-05-19T03:03:40.447Z,0
2019-05-19T03:04:41.807Z,4
2019-05-19T03:05:43.157Z,4
2019-05-19T03:06:44.504Z,4
2019-05-19T03:07:45.856Z,0
2019-05-19T03:08:47.217Z,4
2019-05-19T03:09:48.628Z,4
2019-05-19T03:10:49.972Z,4
2019-05-19T03:11:51.329Z,8
2019-05-19T03:12:52.674Z,4
2019-05-19T03:13:54.031Z,8
2019-05-19T03:14:55.383Z,12
2019-05-19T03:15:56.733Z,12
2019-05-19T03:16:58.095Z,12
2019-05-19T03:17:59.444Z,16
2019-05-19T03:19:00.804Z,20
2019-05-19T03:20:02.159Z,20
2019-05-19T03:21:10.900Z,24
2019-05-19T03:22:04.820Z,28
2019-05-19T03:23:06.182Z,28
2019-05-19T03:24:07.529Z,32
2019-05-19T03:25:08.888Z,40
2019-05-19T03:26:10.243Z,44
2019-05-19T03:27:11.601Z,48
2019-05-19T03:28:12.951Z,56
2019-05-19T03:29:14.305Z,64
2019-05-19T03:30:15.662Z,72
2019-05-19T03:31:17.010Z,80
2019-05-19T03:32:18.358Z,92
2019-05-19T03:33:19.848Z,100
2019-05-19T03:34:21.031Z,112
2019-05-19T03:35:22.379Z,120
2019-05-19T03:36:23.737Z,132
2019-05-19T03:37:25.099Z,144
2019-05-19T03:38:26.443Z,156
2019-05-19T03:39:27.800Z,168
2019-05-19T03:40:29.155Z,176
2019-05-19T03:41:30.511Z,188
2019-05-19T03:42:31.859Z,196
2019-05-19T03:43:33.205Z,204
2019-05-19T03:44:34.574Z,216
2019-05-19T03:45:35.934Z,224
2019-05-19T03:46:37.285Z,236
2019-05-19T03:47:38.639Z,252
2019-05-19T03:48:40.002Z,268
2019-05-19T03:49:41.359Z,284
2019-05-19T03:50:42.719Z,304
2019-05-19T03:51:44.099Z,332
2019-05-19T03:52:45.461Z,368
2019-05-19T03:53:46.811Z,408
2019-05-19T03:54:48.169Z,460
2019-05-19T03:55:49.550Z,520
2019-05-19T03:56:50.894Z,588
2019-05-19T03:57:52.259Z,668
2019-05-19T03:58:53.620Z,748
2019-05-19T03:59:54.967Z,836
2019-05-19T04:00:56.318Z,920
2019-05-19T04:01:57.680Z,1008
2019-05-19T04:02:59.061Z,1092
2019-05-19T04:04:00.405Z,1176
2019-05-19T04:05:01.765Z,1264
2019-05-19T04:06:03.125Z,1360
2019-05-19T04:07:04.484Z,1456
2019-05-19T04:08:05.836Z,1564
2019-05-19T04:09:07.198Z,1668
2019-05-19T04:10:08.573Z,1776
2019-05-19T04:11:09.926Z,1856
2019-05-19T04:12:11.273Z,1932
2019-05-19T04:13:12.633Z,2000
2019-05-19T04:14:14.018Z,2072
2019-05-19T04:15:15.373Z,2156
2019-05-19T04:16:16.734Z,2244
2019-05-19T04:17:18.099Z,2344
2019-05-19T04:18:19.451Z,2456
2019-05-19T04:19:20.806Z,2548
2019-05-19T04:20:22.161Z,2620
2019-05-19T04:21:23.528Z,2648
2019-05-19T04:22:24.879Z,2652
2019-05-19T04:23:26.238Z,2644
2019-05-19T04:24:27.625Z,2628
2019-05-19T04:25:28.984Z,2596
2019-05-19T04:26:30.343Z,2524
2019-05-19T04:27:31.700Z,2448
2019-05-19T04:28:33.055Z,2352
2019-05-19T04:29:34.415Z,2228
2019-05-19T04:30:35.763Z,2140
2019-05-19T04:31:37.118Z,2068
2019-05-19T04:32:38.480Z,2044
2019-05-19T04:33:39.829Z,2056
2019-05-19T04:34:41.192Z,2072
2019-05-19T04:35:42.550Z,2092
2019-05-19T04:36:43.898Z,2104
2019-05-19T04:37:45.262Z,2084
2019-05-19T04:38:46.620Z,2060
2019-05-19T04:39:47.974Z,2036
2019-05-19T04:40:49.340Z,2044
2019-05-19T04:41:50.701Z,2056
2019-05-19T04:42:52.059Z,2056
2019-05-19T04:43:53.428Z,2040
2019-05-19T04:44:54.806Z,2024
2019-05-19T04:45:56.298Z,2004
2019-05-19T04:46:57.645Z,2012
2019-05-19T04:47:59.024Z,2048
2019-05-19T04:49:00.369Z,2116
2019-05-19T04:50:01.768Z,2156
2019-05-19T04:51:03.112Z,2152
2019-05-19T04:52:06.992Z,2148
2019-05-19T04:53:05.805Z,2188
2019-05-19T04:54:07.159Z,2300
2019-05-19T04:55:08.514Z,2456
2019-05-19T04:56:09.869Z,2564
2019-05-19T04:57:11.230Z,2564
2019-05-19T04:58:12.602Z,2620
2019-05-19T04:59:13.957Z,2740
2019-05-19T05:00:15.315Z,2908
2019-05-19T05:01:16.673Z,3228
2019-05-19T05:02:18.026Z,3664
2019-05-19T05:03:19.396Z,3808
2019-05-19T05:04:20.757Z,3580
2019-05-19T05:05:22.121Z,3804
2019-05-19T05:06:23.491Z,3952
2019-05-19T05:07:24.850Z,3820
2019-05-19T05:08:30.157Z,3544
2019-05-19T05:09:27.537Z,3472
2019-05-19T05:10:28.899Z,3528
2019-05-19T05:11:30.264Z,3592
2019-05-19T05:12:31.627Z,3656
2019-05-19T05:13:32.985Z,3708
2019-05-19T05:14:34.344Z,3828
2019-05-19T05:15:35.714Z,3992
2019-05-19T05:16:37.070Z,4092
2019-05-19T05:17:38.429Z,4192
2019-05-19T05:18:39.801Z,4356
2019-05-19T05:19:41.192Z,4692
2019-05-19T05:20:42.582Z,5164
2019-05-19T05:21:43.901Z,5740
2019-05-19T05:22:45.262Z,6180
2019-05-19T05:23:46.617Z,6732
2019-05-19T05:24:47.974Z,7452
2019-05-19T05:25:49.347Z,8068
2019-05-19T05:26:50.712Z,8420
2019-05-19T05:27:52.065Z,8876
2019-05-19T05:28:53.426Z,8984
2019-05-19T05:29:54.800Z,8900
2019-05-19T05:30:56.153Z,8772
2019-05-19T05:31:57.516Z,8568
2019-05-19T05:32:58.875Z,8384
2019-05-19T05:34:00.250Z,8580
2019-05-19T05:35:01.602Z,8784
2019-05-19T05:36:02.958Z,8840
2019-05-19T05:37:04.324Z,8936
2019-05-19T05:38:05.686Z,9224
2019-05-19T05:39:07.049Z,9500
2019-05-19T05:40:08.427Z,9720
2019-05-19T05:41:09.779Z,9908
2019-05-19T05:42:11.146Z,9940
2019-05-19T05:43:12.509Z,9920
2019-05-19T05:44:13.855Z,9764
2019-05-19T05:45:15.239Z,9440
2019-05-19T05:46:16.601Z,9180
2019-05-19T05:47:17.941Z,8900
2019-05-19T05:48:19.332Z,8636
2019-05-19T05:49:20.695Z,8604
2019-05-19T05:50:22.050Z,8692
2019-05-19T05:51:23.401Z,8808
2019-05-19T05:52:37.512Z,8876
2019-05-19T05:53:26.085Z,8852
2019-05-19T05:54:27.451Z,8960
2019-05-19T05:55:28.807Z,9068
2019-05-19T05:56:30.182Z,8828
2019-05-19T05:57:31.538Z,8492
2019-05-19T05:58:32.897Z,8332
2019-05-19T05:59:34.280Z,8488
2019-05-19T06:00:35.640Z,8808
2019-05-19T06:01:37.007Z,9240
2019-05-19T06:02:38.376Z,9748
2019-05-19T06:03:39.737Z,10264
2019-05-19T06:04:41.113Z,10476
2019-05-19T06:05:42.482Z,10216
2019-05-19T06:06:45.793Z,9840
2019-05-19T06:07:45.170Z,9652
2019-05-19T06:08:46.526Z,9528
2019-05-19T06:09:47.935Z,9660
2019-05-19T06:10:49.298Z,9836
2019-05-19T06:11:50.655Z,9968
2019-05-19T06:12:52.019Z,9976
2019-05-19T06:13:53.382Z,9736
2019-05-19T06:14:54.747Z,9616
2019-05-19T06:15:56.107Z,9616
2019-05-19T06:16:57.474Z,9800
2019-05-19T06:17:58.837Z,9696
2019-05-19T06:19:00.218Z,9480
2019-05-19T06:20:01.588Z,9088
2019-05-19T06:21:02.937Z,8848
2019-05-19T06:22:04.297Z,8664
2019-05-19T06:23:05.671Z,8116
2019-05-19T06:24:07.018Z,7212
2019-05-19T06:25:08.383Z,6448
2019-05-19T06:26:09.768Z,5936
2019-05-19T06:27:11.120Z,5560
2019-05-19T06:28:12.473Z,5420
2019-05-19T06:29:13.837Z,5380
2019-05-19T06:30:15.192Z,5392
2019-05-19T06:31:16.557Z,5296
2019-05-19T06:32:17.918Z,5128
2019-05-19T06:33:19.293Z,5080
2019-05-19T06:34:20.656Z,5268
2019-05-19T06:35:22.016Z,5584
2019-05-19T06:36:23.390Z,5956
2019-05-19T06:37:24.749Z,6256
2019-05-19T06:39:05.804Z,6412
2019-05-19T06:40:07.161Z,6460
2019-05-19T06:41:08.521Z,6672
2019-05-19T06:42:09.873Z,7044
2019-05-19T06:43:11.241Z,7488
2019-05-19T06:44:12.596Z,7776
2019-05-19T06:45:13.961Z,7904
2019-05-19T06:46:15.317Z,8180
2019-05-19T06:47:16.687Z,8704
2019-05-19T06:48:18.043Z,9288
2019-05-19T06:49:19.404Z,9668
2019-05-19T06:50:20.772Z,10188
2019-05-19T06:51:22.126Z,10908
2019-05-19T06:52:23.498Z,11772
2019-05-19T06:53:24.858Z,12636
2019-05-19T06:54:26.221Z,13240
2019-05-19T06:55:27.581Z,13432
2019-05-19T06:56:28.946Z,13340
2019-05-19T06:57:30.316Z,13076
2019-05-19T06:58:31.682Z,12860
2019-05-19T06:59:33.046Z,12636
2019-05-19T07:00:34.486Z,12376
2019-05-19T07:01:35.852Z,12224
2019-05-19T07:02:37.241Z,12076
2019-05-19T07:03:38.577Z,12016
2019-05-19T07:04:39.938Z,12076
2019-05-19T07:05:41.309Z,12256
2019-05-19T07:06:42.733Z,11640
2019-05-19T07:07:44.019Z,10732
2019-05-19T07:08:45.385Z,10020
2019-05-19T07:09:58.106Z,9728
2019-05-19T07:10:48.088Z,9836
2019-05-19T07:11:49.465Z,10392
2019-05-19T07:12:50.827Z,10996
2019-05-19T07:13:52.194Z,11712
2019-05-19T07:14:53.549Z,12144
2019-05-19T07:15:54.910Z,12408
2019-05-19T07:16:56.273Z,12488
2019-05-19T07:17:57.628Z,12096
2019-05-19T07:18:58.985Z,12036
2019-05-19T07:20:00.352Z,12496
2019-05-19T07:21:01.723Z,13008
2019-05-19T07:22:03.199Z,13648
2019-05-19T07:23:04.562Z,14744
2019-05-19T07:24:05.943Z,16256
2019-05-19T07:25:07.298Z,18976
2019-05-19T07:26:08.664Z,22048
2019-05-19T07:27:10.028Z,25056
2019-05-19T07:28:11.433Z,27072
2019-05-19T07:29:12.799Z,26880
2019-05-19T07:30:14.175Z,24928
2019-05-19T07:31:15.537Z,23680
2019-05-19T07:32:16.904Z,23040
2019-05-19T07:33:18.268Z,22176
2019-05-19T07:34:19.630Z,19744
2019-05-19T07:35:21.038Z,19424
2019-05-19T07:36:22.411Z,20448
2019-05-19T07:37:23.778Z,21472
2019-05-19T07:38:25.137Z,22368
2019-05-19T07:39:26.512Z,23808
2019-05-19T07:40:27.886Z,24096
2019-05-19T07:41:29.264Z,25600
2019-05-19T07:42:30.628Z,22784
2019-05-19T07:43:31.997Z,23872
2019-05-19T07:44:33.364Z,24704
2019-05-19T07:45:34.729Z,24128
2019-05-19T07:46:36.093Z,22528
2019-05-19T07:47:37.472Z,22336
2019-05-19T07:48:38.849Z,23872
2019-05-19T07:49:40.234Z,28480
2019-05-19T07:50:41.605Z,30016
2019-05-19T07:51:42.981Z,29152
2019-05-19T07:52:44.342Z,27392
2019-05-19T07:53:45.717Z,26944
2019-05-19T07:54:47.089Z,26496
2019-05-19T07:55:48.488Z,25536
2019-05-19T07:56:49.864Z,25248
2019-05-19T07:57:51.238Z,26848
2019-05-19T07:58:52.610Z,28704
2019-05-19T07:59:53.974Z,30080
2019-05-19T08:00:55.357Z,29984
2019-05-19T08:01:56.978Z,29760
2019-05-19T08:02:58.324Z,30368
2019-05-19T08:03:59.708Z,31456
2019-05-19T08:05:01.097Z,34304
2019-05-19T08:06:02.666Z,38848
2019-05-19T08:07:03.799Z,40896
2019-05-19T08:08:05.174Z,40704
2019-05-19T08:09:06.592Z,40480
2019-05-19T08:10:07.929Z,40832
2019-05-19T08:11:09.299Z,42304
2019-05-19T08:12:10.681Z,41248
2019-05-19T08:13:12.044Z,44704
2019-05-19T08:14:13.468Z,62272
2019-05-19T08:15:14.833Z,61280
2019-05-19T08:16:16.200Z,54560
2019-05-19T08:17:17.602Z,46400
2019-05-19T08:18:18.978Z,61440
2019-05-19T08:19:20.357Z,60000
2019-05-19T08:20:21.738Z,39392
2019-05-19T08:21:23.142Z,38048
2019-05-19T08:22:24.569Z,41856
2019-05-19T08:23:25.930Z,65184
2019-05-19T08:24:27.321Z,63744
2019-05-19T08:25:28.698Z,62112
2019-05-19T08:26:30.082Z,60224
2019-05-19T08:27:31.459Z,63360
2019-05-19T08:28:32.863Z,62304
2019-05-19T08:29:34.238Z,62432
2019-05-19T08:30:35.627Z,65280
2019-05-19T08:31:37.014Z,78112
2019-05-19T08:32:38.394Z,85440
2019-05-19T08:33:39.834Z,86880
2019-05-19T08:34:41.236Z,89888
2019-05-19T08:35:42.603Z,93760
2019-05-19T08:36:43.994Z,88096
2019-05-19T08:37:45.453Z,81216
2019-05-19T08:38:46.829Z,81856
2019-05-19T08:39:48.264Z,76800
2019-05-19T08:40:49.754Z,81376
2019-05-19T08:41:51.093Z,84864
2019-05-19T08:42:52.474Z,92928
2019-05-19T08:43:53.855Z,93344
2019-05-19T08:44:55.232Z,71040
2019-05-19T08:45:56.610Z,70048
2019-05-19T08:46:57.990Z,76768
2019-05-19T08:47:59.375Z,75168
2019-05-19T08:49:00.811Z,62080
2019-05-19T08:50:02.215Z,60224
2019-05-19T08:51:03.590Z,60256
2019-05-19T08:52:04.964Z,54144
2019-05-19T08:53:06.349Z,37248
2019-05-19T08:54:15.143Z,31296
2019-05-19T08:55:09.072Z,30560
2019-05-19T08:56:10.442Z,30464
2019-05-19T08:57:11.805Z,31808
2019-05-19T08:58:13.189Z,30656
2019-05-19T08:59:14.566Z,31648
2019-05-19T09:00:15.940Z,34304
2019-05-19T09:01:17.316Z,39008
2019-05-19T09:02:18.691Z,44352
2019-05-19T09:03:20.079Z,42944
2019-05-19T09:04:21.474Z,45536
2019-05-19T09:05:22.813Z,48384
2019-05-19T09:06:24.184Z,50016
2019-05-19T09:07:25.564Z,55072
2019-05-19T09:08:26.943Z,63392
2019-05-19T09:09:28.321Z,68768
2019-05-19T09:10:29.691Z,74848
2019-05-19T09:11:31.263Z,88800
2019-05-19T09:12:32.690Z,94784
2019-05-19T09:13:34.060Z,98080
2019-05-19T09:14:35.435Z,100064
2019-05-19T09:15:36.908Z,97440
2019-05-19T09:16:38.301Z,84672
2019-05-19T09:17:39.703Z,76448
2019-05-19T09:18:41.096Z,82208
2019-05-19T09:19:42.514Z,88000
2019-05-19T09:20:43.957Z,92768
2019-05-19T09:21:45.405Z,91552
2019-05-19T09:22:46.820Z,90592
2019-05-19T09:23:48.284Z,87936
2019-05-19T09:24:49.665Z,84704
2019-05-19T09:25:51.130Z,83264
2019-05-19T09:26:52.531Z,79936
2019-05-19T09:27:53.889Z,80640
2019-05-19T09:28:55.494Z,81088
2019-05-19T09:29:56.866Z,83904
2019-05-19T09:30:58.263Z,82112
2019-05-19T09:31:59.650Z,81312
2019-05-19T09:33:01.074Z,82016
2019-05-19T09:34:02.655Z,83104
2019-05-19T09:35:04.004Z,78816
2019-05-19T09:36:05.370Z,86752
2019-05-19T09:37:07.484Z,93024
2019-05-19T09:38:08.910Z,96000
2019-05-19T09:39:10.348Z,97632
2019-05-19T09:40:11.727Z,98080
2019-05-19T09:41:13.165Z,95552
2019-05-19T09:42:16.250Z,96320
2019-05-19T09:43:18.569Z,98848
2019-05-19T09:44:20.308Z,92000
2019-05-19T09:45:22.286Z,78336
2019-05-19T09:46:23.736Z,70688
2019-05-19T09:47:25.380Z,66880
2019-05-19T09:48:26.997Z,63136
2019-05-19T09:49:28.731Z,61888
2019-05-19T09:50:30.255Z,62336
2019-05-19T09:51:31.860Z,63616
2019-05-19T09:52:33.483Z,64736
2019-05-19T09:53:35.137Z,66208
2019-05-19T09:54:44.929Z,67456
2019-05-19T09:55:38.213Z,74048
2019-05-19T09:56:40.498Z,80288
2019-05-19T09:57:42.065Z,92960
2019-05-19T09:58:43.592Z,104032
2019-05-19T09:59:45.650Z,100448
2019-05-19T10:00:47.320Z,89856
2019-05-19T10:01:48.904Z,88576
2019-05-19T10:02:50.441Z,91872
2019-05-19T10:03:51.971Z,83360
2019-05-19T10:04:53.662Z,78816
2019-05-19T10:05:55.224Z,73728
2019-05-19T10:06:56.806Z,80864
2019-05-19T10:07:58.415Z,80288
2019-05-19T10:09:00.834Z,84928
2019-05-19T10:10:02.325Z,90784
2019-05-19T10:11:03.860Z,89120
2019-05-19T10:12:05.307Z,93120
2019-05-19T10:13:06.686Z,89856
2019-05-19T10:14:08.076Z,101376
2019-05-19T10:15:09.594Z,97376
2019-05-19T10:16:11.829Z,96544
2019-05-19T10:17:13.469Z,91008
2019-05-19T10:18:16.185Z,94176
2019-05-19T10:19:17.860Z,98912
2019-05-19T10:20:19.483Z,100480
2019-05-19T10:21:21.108Z,100448
2019-05-19T10:22:23.699Z,100800
2019-05-19T10:23:26.075Z,100032
2019-05-19T10:24:27.621Z,100736
2019-05-19T10:25:29.900Z,96192
2019-05-19T10:26:32.081Z,91424
2019-05-19T10:27:34.238Z,87616
2019-05-19T10:28:37.367Z,82176
2019-05-19T10:29:39.586Z,76768
2019-05-19T10:30:42.150Z,76800
2019-05-19T10:31:44.770Z,77952
2019-05-19T10:32:46.394Z,80832
2019-05-19T10:33:48.779Z,83648
2019-05-19T10:34:50.324Z,87328
2019-05-19T10:35:52.532Z,88288
2019-05-19T10:36:54.783Z,86752
2019-05-19T10:37:56.373Z,88256
2019-05-19T10:38:58.937Z,92768
2019-05-19T10:40:00.598Z,95424
2019-05-19T10:41:03.195Z,93024
2019-05-19T10:42:04.794Z,92672
2019-05-19T10:43:07.295Z,97568
2019-05-19T10:44:08.872Z,101280
2019-05-19T10:45:10.402Z,101696
2019-05-19T10:46:12.890Z,99360
2019-05-19T10:47:15.265Z,102624
2019-05-19T10:48:16.896Z,101824
2019-05-19T10:49:19.013Z,102784
2019-05-19T10:50:21.077Z,103584
2019-05-19T10:51:23.658Z,102880
2019-05-19T10:52:25.279Z,104064
2019-05-19T10:53:27.746Z,106048
2019-05-19T10:54:29.303Z,113920
2019-05-19T10:55:36.525Z,115264
2019-05-19T10:56:33.317Z,117952
2019-05-19T10:57:35.625Z,120928
2019-05-19T10:58:39.325Z,121568
2019-05-19T10:59:41.602Z,122816
2019-05-19T11:00:43.192Z,123392
2019-05-19T11:01:45.433Z,128320
2019-05-19T11:02:47.582Z,131264
2019-05-19T11:03:50.207Z,133664
2019-05-19T11:04:51.754Z,133888
2019-05-19T11:05:53.142Z,134240
2019-05-19T11:06:54.523Z,133088
2019-05-19T11:07:55.918Z,134176
2019-05-19T11:08:58.109Z,134464
2019-05-19T11:10:00.263Z,133408
2019-05-19T11:11:02.355Z,129792
2019-05-19T11:12:03.746Z,128064
2019-05-19T11:13:05.796Z,124960
2019-05-19T11:14:07.733Z,123584
2019-05-19T11:15:10.115Z,122304
2019-05-19T11:16:12.457Z,126688
2019-05-19T11:17:14.645Z,122592
2019-05-19T11:18:16.872Z,126304
2019-05-19T11:19:18.278Z,127104
2019-05-19T11:20:20.404Z,129504
2019-05-19T11:21:22.458Z,126080
2019-05-19T11:22:24.461Z,124192
2019-05-19T11:23:26.413Z,125952
2019-05-19T11:24:28.761Z,126496
2019-05-19T11:25:34.025Z,127936
2019-05-19T11:26:33.307Z,127104
2019-05-19T11:27:34.702Z,122112
2019-05-19T11:28:36.947Z,123104
2019-05-19T11:29:39.121Z,121920
2019-05-19T11:30:41.287Z,122752
2019-05-19T11:31:43.358Z,124160
2019-05-19T11:32:44.747Z,123968
2019-05-19T11:33:46.126Z,123168
2019-05-19T11:34:47.514Z,122496
2019-05-19T11:35:48.907Z,121824
2019-05-19T11:36:50.293Z,124064
2019-05-19T11:37:51.711Z,122560
2019-05-19T11:38:53.096Z,118208
2019-05-19T11:39:54.492Z,119200
2019-05-19T11:40:55.879Z,113248
2019-05-19T11:41:57.262Z,110304
2019-05-19T11:42:58.642Z,97856
2019-05-19T11:44:00.052Z,98048
2019-05-19T11:45:01.469Z,97248
2019-05-19T11:46:02.834Z,93088
2019-05-19T11:47:04.212Z,96384
2019-05-19T11:48:05.615Z,92832
2019-05-19T11:49:07.002Z,83392
2019-05-19T11:50:08.385Z,72800
2019-05-19T11:51:09.757Z,73664
2019-05-19T11:52:11.153Z,76160
2019-05-19T11:53:12.537Z,72512
2019-05-19T11:54:13.930Z,63232
2019-05-19T11:55:15.312Z,48544
2019-05-19T11:56:16.808Z,40128
2019-05-19T11:57:18.194Z,35008
2019-05-19T11:58:19.604Z,30560
2019-05-19T11:59:20.979Z,27008
2019-05-19T12:00:22.364Z,24832
2019-05-19T12:01:23.753Z,23712
2019-05-19T12:02:25.140Z,22784
2019-05-19T12:03:26.527Z,22368
2019-05-19T12:04:27.907Z,22144
2019-05-19T12:05:29.350Z,22656
2019-05-19T12:06:39.213Z,23680
2019-05-19T12:07:31.982Z,24768
2019-05-19T12:08:33.365Z,25728
2019-05-19T12:09:34.747Z,26720
2019-05-19T12:10:36.129Z,28704
2019-05-19T12:11:38.947Z,34336
2019-05-19T12:12:40.346Z,42336
2019-05-19T12:13:41.718Z,44320
2019-05-19T12:14:43.131Z,38560
2019-05-19T12:15:44.519Z,40192
2019-05-19T12:16:45.893Z,56768
2019-05-19T12:17:47.274Z,77504
2019-05-19T12:18:48.651Z,92480
2019-05-19T12:19:50.034Z,109056
2019-05-19T12:20:51.425Z,118592
2019-05-19T12:21:52.819Z,116896
2019-05-19T12:22:54.199Z,116288
2019-05-19T12:23:55.585Z,118656
2019-05-19T12:24:56.962Z,119104
2019-05-19T12:25:58.409Z,119072
2019-05-19T12:26:59.673Z,118272
2019-05-19T12:28:01.051Z,115680
2019-05-19T12:29:02.438Z,115072
2019-05-19T12:30:03.822Z,115424
2019-05-19T12:31:05.207Z,114176
2019-05-19T12:32:06.587Z,114432
2019-05-19T12:33:07.973Z,114272
2019-05-19T12:34:09.362Z,111840
2019-05-19T12:35:10.742Z,112512
2019-05-19T12:36:12.131Z,110464
2019-05-19T12:37:13.518Z,108384
2019-05-19T12:38:14.902Z,104736
2019-05-19T12:39:55.807Z,104608
2019-05-19T12:40:57.229Z,105376
2019-05-19T12:41:58.617Z,105632
2019-05-19T12:43:00.030Z,104832
2019-05-19T12:44:01.420Z,104896
2019-05-19T12:45:02.808Z,103968
2019-05-19T12:46:04.209Z,103552
2019-05-19T12:47:05.527Z,102496
2019-05-19T12:48:06.919Z,100064
2019-05-19T12:49:08.300Z,96608
2019-05-19T12:50:09.687Z,92832
2019-05-19T12:51:11.069Z,96384
2019-05-19T12:52:12.457Z,97952
2019-05-19T12:53:13.838Z,99584
2019-05-19T12:54:15.226Z,97344
2019-05-19T12:55:16.602Z,96928
2019-05-19T12:56:18.003Z,94528
2019-05-19T12:57:21.165Z,93600
2019-05-19T12:58:20.754Z,93536
2019-05-19T12:59:22.210Z,96064
2019-05-19T13:00:23.649Z,98240
2019-05-19T13:01:25.040Z,98208
2019-05-19T13:02:26.432Z,97408
2019-05-19T13:03:27.846Z,98688
2019-05-19T13:04:29.267Z,102592
2019-05-19T13:05:30.667Z,104768
2019-05-19T13:06:32.095Z,102752
2019-05-19T13:07:33.491Z,94752
2019-05-19T13:08:34.883Z,63040
2019-05-19T13:09:36.261Z,93152
2019-05-19T13:10:37.641Z,100480
2019-05-19T13:11:39.109Z,103040
2019-05-19T13:12:40.495Z,103232
2019-05-19T13:13:41.887Z,98880
2019-05-19T13:14:43.268Z,97760
2019-05-19T13:15:44.655Z,39328
2019-05-19T13:16:46.044Z,31712
2019-05-19T13:17:47.424Z,33152
2019-05-19T13:18:48.814Z,41184
2019-05-19T13:19:50.192Z,108224
2019-05-19T13:20:51.582Z,104448
2019-05-19T13:21:52.966Z,99680
2019-05-19T13:22:54.346Z,99232
2019-05-19T13:23:55.949Z,98336
2019-05-19T13:24:57.078Z,97376
2019-05-19T13:25:58.454Z,96928
2019-05-19T13:26:59.839Z,94720
2019-05-19T13:28:01.223Z,90304
2019-05-19T13:29:02.607Z,91424
2019-05-19T13:30:03.994Z,93152
2019-05-19T13:31:05.375Z,91712
2019-05-19T13:32:06.754Z,89696
2019-05-19T13:33:08.156Z,90368
2019-05-19T13:34:09.535Z,93056
2019-05-19T13:35:10.925Z,92928
2019-05-19T13:36:12.316Z,92864
2019-05-19T13:37:13.701Z,91296
2019-05-19T13:38:15.081Z,91840
2019-05-19T13:39:16.474Z,92160
2019-05-19T13:40:17.854Z,90272
2019-05-19T13:41:19.235Z,87520
2019-05-19T13:42:20.617Z,85376
2019-05-19T13:43:25.301Z,87424
2019-05-19T13:44:23.366Z,86272
2019-05-19T13:45:24.743Z,86432
2019-05-19T13:46:26.127Z,84800